Time;durP1;ratioP1;P1;durP2;ratioP2;P2;SDS_P1;SDS_P2;PMS_P1;PMS_P2;Temp;Humidity;BMP_temperature;BMP_pressure;BME280_temperature;BME280_humidity;BME280_pressure;Samples;Min_cycle;Max_cycle;Signal;HPM_P1;HPM_P2
2021/12/22 00:01:59;;;;;;;22.35;8.10;;;;;;;-3.45;100.00;101788.53;6032017;29;20060;-91
2021/12/22 00:05:02;;;;;;;21.70;8.57;;;;;;;-3.50;100.00;101791.03;6018294;29;20038;-90
2021/12/22 00:08:04;;;;;;;27.83;8.77;;;;;;;-3.45;100.00;101796.13;6034783;29;20499;-90
2021/12/22 00:11:06;;;;;;;28.73;9.52;;;;;;;-3.46;100.00;101786.81;6036927;29;20049;-90
2021/12/22 00:14:08;;;;;;;24.45;9.13;;;;;;;-3.55;100.00;101789.34;6023275;29;20523;-90
2021/12/22 00:17:10;;;;;;;28.58;9.73;;;;;;;-3.58;100.00;101781.75;6042305;29;20510;-90
2021/12/22 00:20:14;;;;;;;22.10;10.40;;;;;;;-3.51;100.00;101783.44;6043992;29;20049;-90
2021/12/22 00:23:16;;;;;;;28.38;9.48;;;;;;;-3.43;100.00;101776.69;6067644;29;20048;-90
2021/12/22 00:26:18;;;;;;;27.17;9.88;;;;;;;-3.40;100.00;101788.50;6013136;29;20100;-90
2021/12/22 00:29:21;;;;;;;25.70;9.68;;;;;;;-3.43;100.00;101791.88;6034723;29;20060;-90
2021/12/22 00:32:26;;;;;;;36.50;10.88;;;;;;;-3.46;100.00;101789.34;6057835;29;20087;-90
2021/12/22 00:35:37;;;;;;;31.42;10.05;;;;;;;-3.40;100.00;101799.47;6050469;29;20132;-90
2021/12/22 00:38:39;;;;;;;36.72;9.95;;;;;;;-3.46;100.00;101791.88;6039424;29;20495;-90
2021/12/22 00:41:41;;;;;;;27.75;9.77;;;;;;;-3.44;100.00;101786.81;6050244;29;20041;-90
2021/12/22 00:44:50;;;;;;;17.73;8.65;;;;;;;-3.44;100.00;101784.28;6044239;29;20559;-91
2021/12/22 00:47:52;;;;;;;24.15;9.55;;;;;;;-3.38;100.00;101785.16;6056602;29;20052;-90
2021/12/22 00:50:55;;;;;;;27.40;8.82;;;;;;;-3.34;100.00;101785.97;6032857;29;20057;-90
2021/12/22 00:53:57;;;;;;;25.42;9.05;;;;;;;-3.49;100.00;101779.22;6044569;29;20056;-90
2021/12/22 00:57:02;;;;;;;20.95;9.23;;;;;;;-3.47;100.00;101773.31;6038280;29;20052;-91
2021/12/22 01:00:07;;;;;;;23.73;10.18;;;;;;;-3.45;100.00;101775.88;6033093;29;20057;-91
2021/12/22 01:03:08;;;;;;;55.60;11.93;;;;;;;-3.42;100.00;101769.97;6040180;29;20051;-91
2021/12/22 01:06:13;;;;;;;31.20;10.23;;;;;;;-3.39;100.00;101762.34;6032209;29;20052;-90
2021/12/22 01:09:15;;;;;;;23.38;9.10;;;;;;;-3.38;100.00;101764.91;6032042;29;20060;-90
2021/12/22 01:12:18;;;;;;;24.73;9.95;;;;;;;-3.35;100.00;101772.47;6049543;29;20041;-90
2021/12/22 01:15:20;;;;;;;28.38;9.95;;;;;;;-3.34;100.00;101779.22;6062627;29;20045;-90
2021/12/22 01:18:30;;;;;;;21.05;9.30;;;;;;;-3.35;100.00;101785.13;6046315;29;20056;-90
2021/12/22 01:21:54;;;;;;;24.70;9.35;;;;;;;-3.41;100.00;101790.19;6034757;29;20041;-90
2021/12/22 01:25:07;;;;;;;20.33;8.85;;;;;;;-3.48;100.00;101785.97;6042409;29;20192;-91
2021/12/22 01:28:11;;;;;;;20.60;8.68;;;;;;;-3.46;100.00;101789.34;6052262;29;20076;-91
2021/12/22 01:31:16;;;;;;;24.58;9.20;;;;;;;-3.46;100.00;101782.59;6066656;29;20155;-91
2021/12/22 01:34:18;;;;;;;30.27;9.95;;;;;;;-3.41;100.00;101796.94;6068088;29;20436;-91
2021/12/22 01:37:20;;;;;;;31.67;9.15;;;;;;;-3.35;100.00;101779.22;6023199;29;20526;-91
2021/12/22 01:40:23;;;;;;;29.95;9.00;;;;;;;-3.36;100.00;101783.44;6018487;29;20057;-91
2021/12/22 01:43:25;;;;;;;21.42;8.65;;;;;;;-3.36;100.00;101788.50;6034161;29;20072;-91
2021/12/22 01:49:10;;;;;;;24.65;8.98;;;;;;;-3.42;100.00;101787.69;6025086;29;20057;-91
2021/12/22 01:49:56;;;;;;;28.48;8.75;;;;;;;-3.47;100.00;101793.56;6052258;29;20896;-90
2021/12/22 01:53:01;;;;;;;30.38;9.07;;;;;;;-3.49;100.00;101790.19;6035861;29;20051;-91
2021/12/22 01:56:17;;;;;;;32.60;8.80;;;;;;;-3.49;100.00;101792.72;6022800;29;20053;-91
2021/12/22 01:59:20;;;;;;;23.85;8.90;;;;;;;-3.49;100.00;101794.41;6043469;29;20525;-91
2021/12/22 02:02:22;;;;;;;21.02;8.98;;;;;;;-3.45;100.00;101783.47;6016577;29;20037;-91
2021/12/22 02:05:24;;;;;;;26.27;8.52;;;;;;;-3.43;100.00;101793.56;6032408;29;20725;-91
2021/12/22 02:08:26;;;;;;;35.78;10.05;;;;;;;-3.55;100.00;101789.34;6038686;29;20056;-91
2021/12/22 02:11:28;;;;;;;30.50;9.27;;;;;;;-3.57;100.00;101789.34;6065426;29;20121;-91
2021/12/22 02:14:30;;;;;;;30.48;9.13;;;;;;;-3.55;100.00;101797.81;6038672;29;20049;-90
2021/12/22 02:17:35;;;;;;;20.70;8.65;;;;;;;-3.57;100.00;101796.94;6049005;29;20063;-91
2021/12/22 02:20:37;;;;;;;16.52;7.68;;;;;;;-3.66;100.00;101796.09;6032181;29;20526;-91
2021/12/22 02:23:40;;;;;;;19.30;8.82;;;;;;;-3.75;100.00;101796.94;6042691;29;20526;-91
2021/12/22 02:26:50;;;;;;;18.38;8.63;;;;;;;-3.71;100.00;101796.09;6040273;29;20562;-91
2021/12/22 02:29:58;;;;;;;17.67;9.18;;;;;;;-3.69;100.00;101797.78;6042361;29;20056;-91
2021/12/22 02:39:07;;;;;;;32.58;11.35;;;;;;;-3.63;100.00;101791.88;6044289;29;20037;-91
2021/12/22 02:42:12;;;;;;;19.73;8.77;;;;;;;-3.64;100.00;101792.72;6061621;29;20498;-91
2021/12/22 02:45:23;;;;;;;19.45;9.05;;;;;;;-3.67;100.00;101796.97;6034050;29;20586;-91
2021/12/22 02:48:31;;;;;;;;;;;;;;;-3.67;100.00;101792.75;6038661;29;20055;-91
2021/12/22 02:51:34;;;;;;;20.80;9.18;;;;;;;-3.65;100.00;101790.19;6050397;29;19927;-91
2021/12/22 02:54:43;;;;;;;23.33;8.07;;;;;;;-3.71;100.00;101789.34;6065675;29;20056;-91
2021/12/22 02:57:48;;;;;;;24.70;8.25;;;;;;;-3.67;100.00;101784.31;6044661;29;20060;-91
2021/12/22 03:01:06;;;;;;;21.45;6.93;;;;;;;-3.67;100.00;101779.25;6055854;29;20045;-91
2021/12/22 03:04:21;;;;;;;23.20;8.38;;;;;;;-3.71;100.00;101781.75;6037356;29;20084;-91
2021/12/22 03:07:28;;;;;;;21.13;7.97;;;;;;;-3.67;100.00;101780.09;6044062;29;20525;-90
2021/12/22 03:10:31;;;;;;;22.05;8.07;;;;;;;-3.65;100.00;101783.47;6063101;29;20591;-91
2021/12/22 03:13:32;;;;;;;22.70;8.93;;;;;;;-3.69;100.00;101777.53;6027847;29;20059;-91
2021/12/22 03:16:34;;;;;;;21.63;8.40;;;;;;;-3.65;100.00;101780.06;6061085;29;20715;-91
2021/12/22 03:19:36;;;;;;;19.15;8.70;;;;;;;-3.67;100.00;101779.25;6051945;29;20073;-91
2021/12/22 03:22:41;;;;;;;18.63;9.15;;;;;;;-3.63;100.00;101771.63;6051931;29;20051;-91
2021/12/22 03:25:43;;;;;;;18.58;8.60;;;;;;;-3.64;100.00;101757.31;6043953;29;20056;-90
2021/12/22 03:28:46;;;;;;;20.70;9.27;;;;;;;-3.61;100.00;101759.00;6053815;29;20044;-90
2021/12/22 03:31:48;;;;;;;18.73;7.47;;;;;;;-3.64;100.00;101759.84;6036310;29;20053;-91
2021/12/22 03:34:50;;;;;;;21.58;8.07;;;;;;;-3.76;100.00;101765.72;6075161;29;20052;-91
2021/12/22 03:37:57;;;;;;;23.58;7.35;;;;;;;-3.79;100.00;101762.38;6047483;29;20053;-91
2021/12/22 03:41:00;;;;;;;19.75;8.25;;;;;;;-3.87;100.00;101759.00;6064856;29;20048;-90
2021/12/22 03:44:03;;;;;;;17.38;7.03;;;;;;;-3.84;100.00;101764.06;6029280;29;20042;-91
2021/12/22 03:47:07;;;;;;;19.38;8.32;;;;;;;-3.87;100.00;101762.38;6041122;29;20152;-91
2021/12/22 03:50:10;;;;;;;15.82;7.30;;;;;;;-3.92;100.00;101759.84;6040466;29;20048;-91
2021/12/22 03:53:12;;;;;;;17.90;7.97;;;;;;;-3.97;100.00;101763.22;6059877;29;20048;-91
2021/12/22 03:56:14;;;;;;;14.35;7.35;;;;;;;-3.98;100.00;101753.91;6046148;29;20076;-91
2021/12/22 03:59:17;;;;;;;13.02;6.85;;;;;;;-4.04;100.00;101751.41;6043921;29;20607;-91
2021/12/22 04:02:20;;;;;;;16.58;7.65;;;;;;;-4.09;100.00;101750.56;6033552;29;20053;-91
2021/12/22 04:05:22;;;;;;;15.02;7.45;;;;;;;-4.05;100.00;101750.56;6040476;29;20064;-91
2021/12/22 04:08:25;;;;;;;17.63;7.43;;;;;;;-4.08;100.00;101750.53;6051681;29;20288;-91
2021/12/22 04:11:27;;;;;;;14.95;6.90;;;;;;;-4.10;100.00;101754.75;6036559;29;20128;-91
2021/12/22 04:14:29;;;;;;;14.68;7.40;;;;;;;-4.15;100.00;101756.41;6058961;29;20052;-91
2021/12/22 04:17:31;;;;;;;16.92;8.00;;;;;;;-4.21;100.00;101751.38;6036020;29;20044;-92
2021/12/22 04:20:33;;;;;;;18.45;8.10;;;;;;;-4.17;100.00;101748.84;6070047;29;20184;-91
2021/12/22 04:23:36;;;;;;;15.25;7.35;;;;;;;-4.24;100.00;101749.69;6067776;29;20173;-91
2021/12/22 04:26:39;;;;;;;19.40;8.63;;;;;;;-4.25;100.00;101744.59;6036067;29;20072;-91
2021/12/22 04:29:40;;;;;;;15.93;7.93;;;;;;;-4.36;100.00;101749.66;6060322;29;20051;-91
2021/12/22 04:32:43;;;;;;;15.35;8.10;;;;;;;-4.48;100.00;101749.63;6053768;29;20060;-91
2021/12/22 04:35:46;;;;;;;13.23;7.32;;;;;;;-4.57;100.00;101743.69;6042564;29;20052;-91
2021/12/22 04:38:48;;;;;;;16.35;8.20;;;;;;;-4.60;100.00;101737.78;6058145;29;20534;-91
2021/12/22 04:41:50;;;;;;;15.60;7.40;;;;;;;-4.61;100.00;101739.47;6062538;29;20491;-91
2021/12/22 04:44:55;;;;;;;13.55;7.00;;;;;;;-4.66;100.00;101740.31;6060157;29;20508;-91
2021/12/22 04:47:58;;;;;;;16.02;7.97;;;;;;;-4.69;100.00;101748.72;6066225;29;20036;-91
2021/12/22 04:51:00;;;;;;;13.60;6.63;;;;;;;-4.81;100.00;101736.03;6052208;29;20065;-91
2021/12/22 04:57:23;;;;;;;14.60;7.82;;;;;;;-4.79;100.00;101739.41;6048369;29;20061;-91
2021/12/22 05:00:27;;;;;;;14.70;7.22;;;;;;;-4.86;100.00;101741.06;6065079;29;20045;-91
2021/12/22 05:03:30;;;;;;;14.60;6.85;;;;;;;-4.88;100.00;101746.94;6064670;29;20053;-91
2021/12/22 05:06:34;;;;;;;13.10;6.43;;;;;;;-4.98;100.00;101754.47;6046088;29;20045;-91
2021/12/22 05:09:36;;;;;;;15.38;7.70;;;;;;;-4.96;100.00;101753.66;6035950;29;20044;-91
2021/12/22 05:12:38;;;;;;;14.35;7.35;;;;;;;-4.96;100.00;101753.66;6052095;29;20057;-91
2021/12/22 05:15:40;;;;;;;17.52;7.30;;;;;;;-5.07;100.00;101756.09;6055437;29;20096;-91
2021/12/22 05:19:12;;;;;;;17.15;7.32;;;;;;;-5.17;100.00;101750.16;6076921;29;20044;-91
2021/12/22 05:22:14;;;;;;;16.38;7.53;;;;;;;-5.11;100.00;101749.38;6075669;29;20469;-91
2021/12/22 05:25:17;;;;;;;16.67;7.78;;;;;;;-5.01;100.00;101756.97;6040923;29;20064;-91
2021/12/22 05:28:18;;;;;;;15.55;7.60;;;;;;;-5.06;100.00;101757.81;6035267;29;20621;-91
2021/12/22 05:31:22;;;;;;;14.93;6.85;;;;;;;-5.11;100.00;101752.72;6047492;29;20538;-91
2021/12/22 05:34:24;;;;;;;14.52;6.97;;;;;;;-5.07;100.00;101751.03;6027708;29;20127;-91
2021/12/22 05:37:26;;;;;;;14.80;7.30;;;;;;;-5.10;100.00;101751.03;6028987;29;20422;-91
2021/12/22 05:40:28;;;;;;;16.02;7.78;;;;;;;-5.10;100.00;101744.31;6065580;29;20041;-91
2021/12/22 05:43:30;;;;;;;13.88;6.65;;;;;;;-5.15;100.00;101742.59;6069101;29;20177;-91
2021/12/22 05:46:32;;;;;;;14.50;7.22;;;;;;;-5.09;100.00;101742.63;6053141;29;20380;-91
2021/12/22 05:49:34;;;;;;;16.95;7.20;;;;;;;-5.11;100.00;101741.78;6057190;29;20507;-91
2021/12/22 05:52:37;;;;;;;13.88;6.68;;;;;;;-5.13;100.00;101743.47;6048149;29;20048;-91
2021/12/22 05:55:39;;;;;;;16.67;7.70;;;;;;;-5.13;100.00;101740.94;6034094;29;20057;-91
2021/12/22 05:58:42;;;;;;;12.82;6.53;;;;;;;-5.13;100.00;101738.41;6052726;29;20203;-91
2021/12/22 06:01:44;;;;;;;16.58;7.25;;;;;;;-5.09;100.00;101740.97;6058036;29;20297;-92
2021/12/22 06:04:47;;;;;;;14.27;6.93;;;;;;;-5.07;100.00;101733.38;6049357;29;20056;-91
2021/12/22 06:07:50;;;;;;;14.60;7.22;;;;;;;-5.07;100.00;101743.47;6042022;29;20586;-91
2021/12/22 06:10:51;;;;;;;17.67;7.60;;;;;;;-5.13;100.00;101731.66;6035740;29;20049;-92
2021/12/22 06:13:55;;;;;;;17.23;6.97;;;;;;;-5.12;100.00;101735.88;6037249;29;20081;-90
2021/12/22 06:17:10;;;;;;;14.25;6.93;;;;;;;-5.14;100.00;101732.53;6043108;29;20057;-92
2021/12/22 06:20:12;;;;;;;13.30;6.40;;;;;;;-5.14;100.00;101732.53;6027016;29;20049;-91
2021/12/22 06:23:15;;;;;;;15.10;7.07;;;;;;;-5.12;100.00;101737.56;6077993;29;20135;-91
2021/12/22 06:26:17;;;;;;;17.90;7.25;;;;;;;-5.09;100.00;101737.56;6083252;29;20044;-92
2021/12/22 06:29:19;;;;;;;15.88;7.00;;;;;;;-5.18;100.00;101737.53;6043574;29;20045;-91
2021/12/22 06:32:21;;;;;;;15.13;7.43;;;;;;;-5.20;100.00;101740.03;6048354;29;20121;-91
2021/12/22 06:35:23;;;;;;;16.05;6.60;;;;;;;-5.17;100.00;101734.16;6047618;29;20049;-92
2021/12/22 06:38:25;;;;;;;17.45;7.47;;;;;;;-5.11;100.00;101736.75;6040570;29;20049;-92
2021/12/22 06:41:31;;;;;;;14.93;6.93;;;;;;;-5.10;100.00;101730.84;6051370;29;20076;-91
2021/12/22 06:44:33;;;;;;;13.75;7.72;;;;;;;-5.05;100.00;101729.19;6053573;29;20040;-92
2021/12/22 06:47:36;;;;;;;16.63;7.68;;;;;;;-5.05;100.00;101730.03;6053191;29;20504;-91
2021/12/22 06:50:38;;;;;;;13.77;7.22;;;;;;;-5.07;100.00;101726.66;6073538;29;20045;-91
2021/12/22 06:53:40;;;;;;;15.02;8.23;;;;;;;-5.06;100.00;101735.09;6046028;29;20053;-91
2021/12/22 06:56:42;;;;;;;15.15;7.53;;;;;;;-5.05;100.00;101730.03;6065245;29;20222;-91
2021/12/22 06:59:45;;;;;;;21.42;8.18;;;;;;;-5.01;100.00;101735.94;6034788;29;20053;-91
2021/12/22 07:02:47;;;;;;;17.27;8.27;;;;;;;-5.11;100.00;101722.44;6047526;29;20144;-91
2021/12/22 07:05:52;;;;;;;13.57;8.07;;;;;;;-5.07;100.00;101729.19;6061787;29;20105;-91
2021/12/22 07:08:54;;;;;;;15.65;7.05;;;;;;;-5.04;100.00;101726.69;6052718;29;20139;-92
2021/12/22 07:11:57;;;;;;;16.98;7.38;;;;;;;-5.05;100.00;101724.13;6086225;29;20398;-91
2021/12/22 07:14:59;;;;;;;18.25;7.75;;;;;;;-5.06;100.00;101723.31;6046197;29;20059;-91
2021/12/22 07:18:02;;;;;;;15.70;7.75;;;;;;;-5.10;100.00;101721.59;6061344;29;20131;-91
2021/12/22 07:21:04;;;;;;;15.20;7.47;;;;;;;-5.09;100.00;101730.00;6053131;29;20491;-92
2021/12/22 07:24:06;;;;;;;18.25;8.15;;;;;;;-5.04;100.00;101720.78;6065724;29;20152;-91
2021/12/22 07:27:09;;;;;;;16.40;7.10;;;;;;;-5.04;100.00;101733.41;6069138;29;20064;-91
2021/12/22 07:30:12;;;;;;;11.90;6.85;;;;;;;-5.05;100.00;101730.03;6057106;29;20045;-91
2021/12/22 07:33:14;;;;;;;14.88;6.78;;;;;;;-5.02;100.00;101725.00;6081815;29;20048;-92
2021/12/22 07:36:16;;;;;;;13.57;6.93;;;;;;;-5.01;100.00;101730.91;6053239;29;20059;-91
2021/12/22 07:39:18;;;;;;;13.73;7.05;;;;;;;-4.99;100.00;101735.13;6089283;29;20041;-91
2021/12/22 07:42:20;;;;;;;15.07;7.00;;;;;;;-4.95;100.00;101730.91;6082634;29;20060;-91
2021/12/22 07:45:22;;;;;;;14.35;6.97;;;;;;;-4.87;100.00;101729.28;6068368;29;20049;-91
2021/12/22 07:48:25;;;;;;;14.73;7.55;;;;;;;-4.89;100.00;101723.38;6073299;29;20068;-91
2021/12/22 07:51:31;;;;;;;13.85;7.22;;;;;;;-4.87;100.00;101723.38;6071974;29;20144;-91
2021/12/22 07:54:33;;;;;;;20.98;7.90;;;;;;;-4.89;100.00;101728.44;6085002;29;20181;-91
2021/12/22 07:57:35;;;;;;;17.55;7.53;;;;;;;-4.83;100.00;101730.13;6065874;29;20076;-92
2021/12/22 08:00:38;;;;;;;15.07;6.07;;;;;;;-4.72;100.00;101732.69;6065415;29;20045;-92
2021/12/22 08:03:41;;;;;;;18.80;7.13;;;;;;;-4.74;100.00;101732.69;6067802;29;20586;-92
2021/12/22 08:06:45;;;;;;;16.73;7.55;;;;;;;-4.63;100.00;101723.47;6056291;29;20052;-91
2021/12/22 08:09:47;;;;;;;15.65;7.43;;;;;;;-4.62;100.00;101720.13;6096806;29;20104;-92
2021/12/22 08:12:50;;;;;;;15.40;7.03;;;;;;;-4.56;100.00;101720.13;6048106;29;20052;-91
2021/12/22 08:15:52;;;;;;;19.27;8.35;;;;;;;-4.48;100.00;101724.34;6074383;29;20059;-92
2021/12/22 08:18:54;;;;;;;16.50;7.63;;;;;;;-4.42;100.00;101716.78;6089360;29;20076;-92
2021/12/22 08:21:57;;;;;;;13.23;6.57;;;;;;;-4.40;100.00;101720.97;6063952;29;20051;-91
2021/12/22 08:24:59;;;;;;;16.67;7.28;;;;;;;-4.37;100.00;101713.44;6068395;29;20053;-91
2021/12/22 08:28:02;;;;;;;38.88;9.00;;;;;;;-4.28;100.00;101730.28;6082002;29;20045;-92
2021/12/22 08:31:05;;;;;;;12.65;7.07;;;;;;;-4.20;100.00;101713.47;6079127;29;20053;-93
2021/12/22 08:34:10;;;;;;;23.33;8.27;;;;;;;-4.09;100.00;101717.69;6090981;29;20060;-94
2021/12/22 08:40:33;;;;;;;15.35;7.60;;;;;;;-3.93;100.00;101726.94;6039533;29;20084;-93
2021/12/22 08:43:42;;;;;;;16.42;6.95;;;;;;;-3.85;100.00;101724.41;6084671;29;20076;-93
2021/12/22 08:46:49;;;;;;;16.15;8.10;;;;;;;-3.81;100.00;101721.88;6171212;23;20139;-94
2021/12/22 08:49:52;;;;;;;18.15;7.90;;;;;;;-3.74;100.00;101728.63;6086237;29;20060;-93
2021/12/22 08:53:02;;;;;;;14.20;7.63;;;;;;;-3.68;100.00;101727.78;6058061;29;20056;-94
2021/12/22 08:56:05;;;;;;;16.00;7.05;;;;;;;-3.64;100.00;101726.09;6082552;29;20442;-93
2021/12/22 08:59:11;;;;;;;19.17;8.25;;;;;;;-3.64;100.00;101724.41;6088740;29;20072;-93
2021/12/22 09:02:22;;;;;;;15.38;7.47;;;;;;;-3.56;100.00;101717.66;6085380;29;20048;-94
2021/12/22 09:05:25;;;;;;;19.88;8.45;;;;;;;-3.57;100.00;101721.03;6095888;29;20247;-94
2021/12/22 09:08:27;;;;;;;20.70;7.65;;;;;;;-3.49;100.00;101724.38;6081503;29;20048;-93
2021/12/22 09:11:30;;;;;;;16.70;8.15;;;;;;;-3.52;100.00;101721.03;6081981;29;20052;-93
2021/12/22 09:14:33;;;;;;;19.25;8.25;;;;;;;-3.51;100.00;101730.31;6084336;29;20098;-93
2021/12/22 09:17:34;;;;;;;15.65;7.95;;;;;;;-3.53;100.00;101716.81;6083471;29;20064;-94
2021/12/22 09:20:37;;;;;;;16.75;7.78;;;;;;;-3.52;100.00;101716.81;6082420;29;20044;-94
2021/12/22 09:23:42;;;;;;;14.82;7.55;;;;;;;-3.51;100.00;101720.19;6098413;29;20065;-94
2021/12/22 09:26:45;;;;;;;18.05;7.80;;;;;;;-3.47;100.00;101716.81;6081284;29;20056;-94
2021/12/22 09:29:47;;;;;;;16.02;7.75;;;;;;;-3.44;100.00;101719.31;6073085;29;20059;-92
2021/12/22 09:32:49;;;;;;;16.42;7.82;;;;;;;-3.41;100.00;101721.00;6055602;29;20549;-92
2021/12/22 09:35:53;;;;;;;16.17;8.07;;;;;;;-3.42;100.00;101714.28;6074038;29;20044;-92
2021/12/22 09:38:56;;;;;;;16.92;7.07;;;;;;;-3.39;100.00;101716.78;6055705;29;20048;-92
2021/12/22 09:41:58;;;;;;;16.00;7.50;;;;;;;-3.37;100.00;101715.09;6039773;29;20049;-92
2021/12/22 09:45:01;;;;;;;14.63;7.65;;;;;;;-3.34;100.00;101712.56;6072555;29;20525;-90
2021/12/22 09:54:28;;;;;;;14.88;7.97;;;;;;;-3.24;100.00;101709.16;6057740;29;20056;-90
2021/12/22 09:57:31;;;;;;;15.95;8.18;;;;;;;-3.21;100.00;101720.97;6060360;29;20196;-90
2021/12/22 10:00:48;;;;;;;16.90;9.38;;;;;;;-3.14;100.00;101712.50;6059192;29;20537;-90
2021/12/22 10:03:53;;;;;;;17.67;8.00;;;;;;;-3.11;100.00;101720.91;6076827;29;20048;-90
2021/12/22 10:06:56;;;;;;;16.60;8.32;;;;;;;-3.11;100.00;101713.31;6076617;29;20052;-90
2021/12/22 10:10:10;;;;;;;19.33;8.80;;;;;;;-3.15;100.00;101719.25;6059971;29;20706;-90
2021/12/22 10:13:18;;;;;;;18.08;8.25;;;;;;;-3.16;100.00;101715.03;6038825;29;20060;-90
2021/12/22 10:16:26;;;;;;;15.70;8.10;;;;;;;-3.12;100.00;101720.94;6077232;29;20128;-90
2021/12/22 10:19:28;;;;;;;14.48;7.43;;;;;;;-3.12;100.00;101721.78;6064682;29;20060;-90
2021/12/22 10:22:40;;;;;;;20.20;8.45;;;;;;;-3.09;100.00;101711.63;6077979;29;20048;-90
2021/12/22 10:25:42;;;;;;;15.60;7.70;;;;;;;-3.04;100.00;101707.38;6077595;29;20044;-90
2021/12/22 10:28:46;;;;;;;18.27;8.40;;;;;;;-2.96;100.00;101704.00;6060186;29;20491;-90
2021/12/22 10:31:48;;;;;;;16.08;8.15;;;;;;;-2.89;100.00;101709.03;6045485;29;20506;-90
2021/12/22 10:35:08;;;;;;;17.73;8.48;;;;;;;-2.82;100.00;101708.16;6077527;29;20498;-90
2021/12/22 10:38:12;;;;;;;19.40;8.05;;;;;;;-2.71;100.00;101702.19;6061007;29;20048;-90
2021/12/22 10:41:14;;;;;;;17.13;8.18;;;;;;;-2.64;100.00;101694.53;6060749;29;20243;-90
2021/12/22 10:44:16;;;;;;;19.98;7.70;;;;;;;-2.54;100.00;101700.41;6056572;29;20042;-90
2021/12/22 10:47:33;;;;;;;19.05;8.13;;;;;;;-2.52;100.00;101695.34;6077200;29;20055;-90
2021/12/22 10:50:36;;;;;;;17.10;7.93;;;;;;;-2.47;100.00;101689.38;6060375;29;20427;-91
2021/12/22 10:53:54;;;;;;;16.45;7.25;;;;;;;-2.46;100.00;101680.94;6076861;29;20151;-90
2021/12/22 10:56:58;;;;;;;17.15;7.85;;;;;;;-2.42;100.00;101684.28;6076051;29;20051;-90
2021/12/22 11:00:00;;;;;;;17.13;7.93;;;;;;;-2.36;100.00;101670.72;6043800;29;20117;-90
2021/12/22 11:03:13;;;;;;;17.90;7.80;;;;;;;-2.29;100.00;101672.34;6076284;29;20056;-90
2021/12/22 11:06:21;;;;;;;14.82;7.05;;;;;;;-2.24;100.00;101679.06;6059850;29;20044;-90
2021/12/22 11:09:23;;;;;;;15.13;7.70;;;;;;;-2.17;100.00;101679.88;6076841;29;20570;-90
2021/12/22 11:12:39;;;;;;;17.30;8.27;;;;;;;-2.06;100.00;101678.13;6059587;29;20040;-91
2021/12/22 11:15:43;;;;;;;16.73;7.30;;;;;;;-1.98;100.00;101678.06;6077924;29;20056;-90
2021/12/22 11:18:46;;;;;;;17.70;8.68;;;;;;;-1.89;100.00;101677.94;6060851;29;20048;-90
2021/12/22 11:22:06;;;;;;;14.15;6.68;;;;;;;-1.77;100.00;101677.00;6060913;29;20505;-90
2021/12/22 11:25:12;;;;;;;16.63;8.13;;;;;;;-1.70;100.00;101676.09;6060312;29;20080;-90
2021/12/22 11:28:16;;;;;;;17.75;8.50;;;;;;;-1.62;100.00;101678.56;6060279;29;20049;-90
2021/12/22 11:31:18;;;;;;;16.73;8.40;;;;;;;-1.57;100.00;101677.66;6058882;29;20414;-90
2021/12/22 11:34:21;;;;;;;16.30;7.40;;;;;;;-1.55;100.00;101672.56;6075201;29;20123;-90
2021/12/22 11:37:24;;;;;;;15.23;8.00;;;;;;;-1.58;100.00;101683.59;6042573;29;20507;-90
2021/12/22 11:40:26;;;;;;;14.85;7.55;;;;;;;-1.63;100.00;101674.34;6074685;29;20483;-90
2021/12/22 11:43:28;;;;;;;15.13;7.97;;;;;;;-1.60;100.00;101679.38;6074156;29;20756;-90
2021/12/22 11:46:31;;;;;;;17.52;8.68;;;;;;;-1.58;100.00;101670.91;6057767;29;20078;-90
2021/12/22 11:49:34;;;;;;;19.35;8.65;;;;;;;-1.58;100.00;101670.91;6074679;29;20041;-90
2021/12/22 11:52:45;;;;;;;17.63;7.88;;;;;;;-1.58;100.00;101663.28;6058308;29;20044;-90
2021/12/22 11:56:01;;;;;;;14.95;7.43;;;;;;;-1.62;100.00;101658.25;6074605;29;20037;-90
2021/12/22 11:59:04;;;;;;;13.45;6.82;;;;;;;-1.56;100.00;101658.19;6058038;29;20049;-90
2021/12/22 12:02:40;;;;;;;18.27;8.45;;;;;;;-1.45;100.00;101653.84;6057429;29;20068;-90
2021/12/22 12:06:01;;;;;;;16.52;8.10;;;;;;;-1.34;100.00;101644.41;6074669;29;20071;-90
2021/12/22 12:09:12;;;;;;;19.58;8.25;;;;;;;-1.35;100.00;101639.34;6073498;29;20403;-90
2021/12/22 12:12:44;;;;;;;15.93;8.20;;;;;;;-1.39;100.00;101643.63;6055608;29;20225;-90
2021/12/22 12:23:35;;;;;;;17.23;8.93;;;;;;;-1.27;100.00;101627.38;6072876;29;20455;-90
2021/12/22 12:26:40;;;;;;;15.07;7.43;;;;;;;-1.24;100.00;101626.50;6027696;29;20513;-92
2021/12/22 12:30:17;;;;;;;16.67;8.05;;;;;;;-1.19;100.00;101625.59;6061867;29;20055;-92
2021/12/22 12:33:22;;;;;;;18.20;8.65;;;;;;;-1.18;100.00;101627.28;6041361;29;20932;-92
2021/12/22 12:36:32;;;;;;;18.48;8.18;;;;;;;-1.12;100.00;101629.75;6073984;29;20041;-92
2021/12/22 12:39:54;;;;;;;17.52;8.70;;;;;;;-1.06;100.00;101622.91;6056763;29;20088;-92
2021/12/22 12:43:00;;;;;;;15.02;7.47;;;;;;;-1.02;100.00;101614.38;6056552;29;20041;-92
2021/12/22 12:46:02;;;;;;;18.65;8.80;;;;;;;-1.00;100.00;101612.66;6055240;29;20044;-92
2021/12/22 12:49:04;;;;;;;17.90;9.40;;;;;;;-1.01;100.00;101611.81;6053160;29;20108;-91
2021/12/22 12:52:10;;;;;;;15.65;8.25;;;;;;;-1.00;100.00;101610.94;6072624;29;20041;-90
2021/12/22 12:55:15;;;;;;;18.42;9.13;;;;;;;-1.04;100.00;101604.25;6064061;29;20170;-90
2021/12/22 12:58:27;;;;;;;19.42;8.73;;;;;;;-1.06;100.00;101600.03;6073260;29;20045;-93
2021/12/22 13:01:50;;;;;;;18.77;8.73;;;;;;;-1.10;100.00;101600.06;6033924;29;20049;-93
2021/12/22 13:05:08;;;;;;;16.98;8.50;;;;;;;-1.11;100.00;101592.47;6046356;29;20041;-93
2021/12/22 13:08:10;;;;;;;17.13;8.25;;;;;;;-1.17;100.00;101588.34;6037864;29;20040;-93
2021/12/22 13:11:13;;;;;;;18.77;9.90;;;;;;;-1.20;100.00;101588.34;6047920;29;20055;-93
2021/12/22 13:18:21;;;;;;;19.40;8.75;;;;;;;-1.25;100.00;101579.94;6019638;29;20119;-93
2021/12/22 13:21:26;;;;;;;20.17;8.90;;;;;;;-1.31;100.00;101572.44;6035881;29;20054;-93
2021/12/22 13:24:32;;;;;;;17.50;8.85;;;;;;;-1.40;100.00;101575.06;6047347;29;20060;-93
2021/12/22 13:27:35;;;;;;;16.80;8.80;;;;;;;-1.45;100.00;101566.66;6044620;29;20589;-93
2021/12/22 13:30:39;;;;;;;17.17;8.30;;;;;;;-1.48;100.00;101570.09;6043808;29;20044;-93
2021/12/22 13:33:50;;;;;;;16.88;8.13;;;;;;;-1.51;100.00;101572.66;6031396;29;20041;-93
2021/12/22 13:37:05;;;;;;;16.90;9.25;;;;;;;-1.53;100.00;101572.69;6035755;29;20045;-93
2021/12/22 13:40:09;;;;;;;22.08;9.70;;;;;;;-1.57;100.00;101565.94;6061646;29;20055;-93
2021/12/22 13:43:44;;;;;;;16.70;8.65;;;;;;;-1.62;100.00;101557.53;6035062;29;20546;-93
2021/12/22 13:46:47;;;;;;;17.08;8.27;;;;;;;-1.65;100.00;101556.75;6018943;29;20618;-93
2021/12/22 13:49:49;;;;;;;22.63;9.32;;;;;;;-1.63;100.00;101555.03;6028539;29;20044;-93
2021/12/22 13:52:51;;;;;;;18.88;9.20;;;;;;;-1.64;100.00;101555.88;6051539;29;20803;-93
2021/12/22 13:55:57;;;;;;;21.77;10.75;;;;;;;-1.68;100.00;101550.00;6048568;29;20033;-93
2021/12/22 13:59:08;;;;;;;19.77;9.32;;;;;;;-1.68;100.00;101544.09;6062793;29;20512;-93
2021/12/22 14:02:11;;;;;;;19.13;10.07;;;;;;;-1.72;100.00;101548.38;6060559;29;20500;-93
2021/12/22 14:05:21;;;;;;;22.23;9.73;;;;;;;-1.77;100.00;101550.13;6057926;29;20646;-93
2021/12/22 14:08:24;;;;;;;17.50;9.55;;;;;;;-1.83;100.00;101545.97;6038425;29;20526;-93
2021/12/22 14:11:55;;;;;;;20.30;9.52;;;;;;;-1.90;100.00;101536.72;6044222;29;20050;-93
2021/12/22 14:14:58;;;;;;;20.58;9.90;;;;;;;-1.96;100.00;101540.19;6039898;29;20685;-93
2021/12/22 14:18:00;;;;;;;18.98;9.40;;;;;;;-2.00;100.00;101530.91;6056513;29;20045;-93
2021/12/22 14:21:02;;;;;;;21.40;9.80;;;;;;;-2.02;100.00;101529.25;6026467;29;20384;-93
2021/12/22 14:24:04;;;;;;;18.45;8.95;;;;;;;-2.06;100.00;101528.47;6060907;29;20049;-93
2021/12/22 14:27:09;;;;;;;18.77;9.25;;;;;;;-2.12;100.00;101528.50;6039410;29;20131;-93
2021/12/22 14:30:30;;;;;;;22.05;9.82;;;;;;;-2.20;100.00;101520.13;6060404;29;20041;-93
2021/12/22 14:34:02;;;;;;;19.52;9.55;;;;;;;-2.31;100.00;101534.59;6059263;29;20423;-93